Time;durP1;ratioP1;P1;durP2;ratioP2;P2;SDS_P1;SDS_P2;PMS_P1;PMS_P2;Temp;Humidity;BMP_temperature;BMP_pressure;BME280_temperature;BME280_humidity;BME280_pressure;Samples;Min_cycle;Max_cycle;Signal;HPM_P1;HPM_P2
2021/06/08 00:00:37;;;;;;;35.28;27.75;;;16.50;99.90;;;;;;5033738;28;20021;-77
2021/06/08 00:03:04;;;;;;;31.23;26.35;;;16.50;99.90;;;;;;5035047;28;20026;-76
2021/06/08 00:05:31;;;;;;;32.05;25.88;;;16.50;99.90;;;;;;5034887;28;20025;-77
2021/06/08 00:07:58;;;;;;;42.10;33.83;;;16.60;99.90;;;;;;5033557;28;20098;-76
2021/06/08 00:10:23;;;;;;;37.33;30.95;;;16.60;99.90;;;;;;5033549;28;20026;-76
2021/06/08 00:12:49;;;;;;;39.03;31.88;;;16.50;99.90;;;;;;5034734;28;20043;-76
2021/06/08 00:15:15;;;;;;;31.63;25.52;;;16.50;99.90;;;;;;5033397;28;20135;-76
2021/06/08 00:17:41;;;;;;;37.47;31.58;;;16.60;99.90;;;;;;5033446;28;20026;-77
2021/06/08 00:20:09;;;;;;;43.47;34.67;;;16.50;99.90;;;;;;5033384;28;20079;-77
2021/06/08 00:22:35;;;;;;;38.88;29.95;;;16.50;99.90;;;;;;5033239;28;20029;-76
2021/06/08 00:25:01;;;;;;;42.13;33.58;;;16.50;99.90;;;;;;5034444;28;20029;-76
2021/06/08 00:27:27;;;;;;;42.58;31.92;;;16.60;99.90;;;;;;5037049;28;20434;-77
2021/06/08 00:29:53;;;;;;;39.03;31.33;;;16.50;99.90;;;;;;5017197;28;20030;-77
2021/06/08 00:32:19;;;;;;;42.63;34.30;;;16.50;99.90;;;;;;5034377;28;20037;-77
2021/06/08 00:34:45;;;;;;;46.30;34.90;;;16.50;99.90;;;;;;5034124;28;20053;-76
2021/06/08 00:37:11;;;;;;;44.05;33.40;;;16.50;99.90;;;;;;5034312;28;20500;-77
2021/06/08 00:39:37;;;;;;;37.35;31.42;;;16.50;99.90;;;;;;5034328;28;20176;-77
2021/06/08 00:42:03;;;;;;;32.55;25.95;;;16.50;99.90;;;;;;5033175;28;20029;-77
2021/06/08 00:44:29;;;;;;;44.85;34.55;;;16.50;99.90;;;;;;5032854;28;20025;-76
2021/06/08 00:46:54;;;;;;;30.75;26.95;;;16.50;99.90;;;;;;5034154;28;20029;-76
2021/06/08 00:49:20;;;;;;;41.92;32.38;;;16.50;99.90;;;;;;5032755;28;20033;-77
2021/06/08 00:51:46;;;;;;;42.58;31.92;;;16.60;99.90;;;;;;5034013;28;20033;-77
2021/06/08 00:54:12;;;;;;;37.28;29.58;;;16.60;99.90;;;;;;5032704;28;20060;-77
2021/06/08 00:56:40;;;;;;;26.25;19.13;;;16.50;99.90;;;;;;5033942;28;20051;-77
2021/06/08 00:59:06;;;;;;;20.95;16.42;;;16.50;99.90;;;;;;5033879;28;20088;-76
2021/06/08 01:01:33;;;;;;;8.77;7.88;;;16.40;99.90;;;;;;5033944;28;20045;-76
2021/06/08 01:04:03;;;;;;;7.95;7.05;;;16.30;99.90;;;;;;5032774;28;20053;-76
2021/06/08 01:06:32;;;;;;;4.43;3.63;;;16.30;99.90;;;;;;5032950;28;20432;-76
2021/06/08 01:08:59;;;;;;;4.55;3.85;;;16.20;99.90;;;;;;5033754;28;20025;-77
2021/06/08 01:11:24;;;;;;;10.63;9.23;;;16.20;99.90;;;;;;5033684;28;20117;-77
2021/06/08 01:13:50;;;;;;;10.65;7.50;;;16.20;99.90;;;;;;5033710;28;20068;-76
2021/06/08 01:16:16;;;;;;;6.40;4.88;;;16.30;99.90;;;;;;5033849;28;20037;-76
2021/06/08 01:18:42;;;;;;;5.63;4.07;;;16.30;99.90;;;;;;5032336;28;20477;-76
2021/06/08 01:21:12;;;;;;;5.57;4.40;;;16.30;99.90;;;;;;5033526;28;20104;-77
2021/06/08 01:23:38;;;;;;;4.85;4.13;;;16.30;99.90;;;;;;5033078;28;20052;-76
2021/06/08 01:26:06;;;;;;;8.05;6.88;;;16.30;99.90;;;;;;5033496;28;20523;-76
2021/06/08 01:28:34;;;;;;;10.85;9.65;;;16.40;99.90;;;;;;5033488;28;20021;-76
2021/06/08 01:31:06;;;;;;;6.22;4.55;;;16.40;99.90;;;;;;5032305;28;20037;-76
2021/06/08 01:33:33;;;;;;;6.85;6.18;;;16.30;99.90;;;;;;5032889;28;20045;-76
2021/06/08 01:36:00;;;;;;;7.95;6.47;;;16.40;99.90;;;;;;5031660;28;20045;-77
2021/06/08 01:38:27;;;;;;;10.05;7.72;;;16.40;99.90;;;;;;5032653;28;20080;-76
2021/06/08 01:40:53;;;;;;;11.23;8.63;;;16.40;99.90;;;;;;5033312;28;20021;-76
2021/06/08 01:43:20;;;;;;;10.48;7.78;;;16.50;99.90;;;;;;5032097;28;20037;-76
2021/06/08 01:45:52;;;;;;;7.90;7.00;;;16.40;99.90;;;;;;5015635;28;20025;-77
2021/06/08 01:48:19;;;;;;;6.68;5.57;;;16.40;99.90;;;;;;5032318;28;20030;-77
2021/06/08 01:50:48;;;;;;;9.15;8.10;;;16.40;99.90;;;;;;5033255;28;20037;-76
2021/06/08 01:53:35;;;;;;;6.57;5.70;;;16.40;99.90;;;;;;5033203;28;20025;-76
2021/06/08 01:56:07;;;;;;;11.32;7.95;;;16.40;99.90;;;;;;5032088;28;20564;-77
2021/06/08 01:58:44;;;;;;;8.98;8.07;;;16.50;99.90;;;;;;5031911;28;20049;-77
2021/06/08 02:01:19;;;;;;;8.63;7.72;;;16.40;99.90;;;;;;5031901;28;20542;-76
2021/06/08 02:04:03;;;;;;;9.73;8.13;;;16.40;99.90;;;;;;5033154;28;20025;-77
2021/06/08 02:06:45;;;;;;;7.18;5.60;;;16.40;99.90;;;;;;5033429;28;20033;-77
2021/06/08 02:09:19;;;;;;;10.88;8.52;;;16.50;99.90;;;;;;5033655;28;20031;-77
2021/06/08 02:12:06;;;;;;;9.90;8.30;;;16.50;99.90;;;;;;5033081;28;20104;-77
2021/06/08 02:14:54;;;;;;;11.98;7.15;;;16.40;99.90;;;;;;5031751;28;20028;-77
2021/06/08 02:17:54;;;;;;;7.28;5.93;;;16.50;99.90;;;;;;5031731;28;20079;-76
2021/06/08 02:20:27;;;;;;;8.30;5.95;;;16.40;99.90;;;;;;5010680;28;20041;-76
2021/06/08 02:23:00;;;;;;;9.07;6.65;;;16.40;99.90;;;;;;5032983;28;20034;-76
2021/06/08 02:25:29;;;;;;;9.07;7.03;;;16.40;99.90;;;;;;5031659;28;20033;-76
2021/06/08 02:27:58;;;;;;;10.60;7.75;;;16.40;99.90;;;;;;5015124;28;20508;-77
2021/06/08 02:30:24;;;;;;;7.53;6.68;;;16.40;99.90;;;;;;5031586;28;20063;-77
2021/06/08 02:32:51;;;;;;;7.20;6.50;;;16.40;99.90;;;;;;5032822;28;20143;-76
2021/06/08 02:35:20;;;;;;;9.95;7.93;;;16.30;99.90;;;;;;5032512;28;20053;-77
2021/06/08 02:37:47;;;;;;;7.13;6.43;;;16.30;99.90;;;;;;5036390;28;20022;-77
2021/06/08 02:40:14;;;;;;;8.75;6.57;;;16.40;99.90;;;;;;5036508;28;20500;-76
2021/06/08 02:42:42;;;;;;;7.47;5.68;;;16.30;99.90;;;;;;5018874;28;20025;-77
2021/06/08 02:45:08;;;;;;;6.85;6.25;;;16.30;99.90;;;;;;5035082;28;20075;-76
2021/06/08 02:47:41;;;;;;;6.88;5.93;;;16.30;99.90;;;;;;5036656;28;20041;-76
2021/06/08 02:50:07;;;;;;;13.68;6.72;;;16.40;99.90;;;;;;5036111;28;20025;-76
2021/06/08 02:52:34;;;;;;;9.75;6.32;;;16.40;99.90;;;;;;5036549;28;20065;-76
2021/06/08 02:55:02;;;;;;;13.00;6.13;;;16.30;99.90;;;;;;5036438;28;20469;-77
2021/06/08 02:57:29;;;;;;;8.85;6.90;;;16.30;99.90;;;;;;5035952;28;20104;-76
2021/06/08 03:00:02;;;;;;;6.40;5.80;;;16.30;99.90;;;;;;5018618;28;20036;-77
2021/06/08 03:02:29;;;;;;;9.30;6.05;;;16.30;99.90;;;;;;5019355;28;20033;-76
2021/06/08 03:04:58;;;;;;;10.05;6.32;;;16.40;99.90;;;;;;5036374;28;20468;-76
2021/06/08 03:07:25;;;;;;;6.90;5.97;;;16.40;99.90;;;;;;5036032;28;20029;-76
2021/06/08 03:10:07;;;;;;;8.18;6.80;;;16.40;99.90;;;;;;5036194;28;20056;-77
2021/06/08 03:12:40;;;;;;;8.85;6.15;;;16.40;99.90;;;;;;5018383;28;20033;-77
2021/06/08 03:15:06;;;;;;;6.93;6.22;;;16.30;99.90;;;;;;5036188;28;20067;-77
2021/06/08 03:17:34;;;;;;;9.32;7.22;;;16.30;99.90;;;;;;5034577;28;20507;-77
2021/06/08 03:20:11;;;;;;;9.10;7.05;;;16.30;99.90;;;;;;5018424;28;20053;-77
2021/06/08 03:22:46;;;;;;;9.07;7.65;;;16.20;99.90;;;;;;5036462;28;20030;-77
2021/06/08 03:25:14;;;;;;;9.88;7.50;;;16.20;99.90;;;;;;5034565;28;20048;-76
2021/06/08 03:27:42;;;;;;;10.27;7.65;;;16.20;99.90;;;;;;5018112;28;20037;-77
2021/06/08 03:30:09;;;;;;;8.02;7.22;;;16.30;99.90;;;;;;5035629;28;20045;-77
2021/06/08 03:32:36;;;;;;;11.63;7.75;;;16.40;99.90;;;;;;5035831;28;20100;-76
2021/06/08 03:35:06;;;;;;;11.75;7.53;;;16.30;99.90;;;;;;5033990;28;20048;-76
2021/06/08 03:37:33;;;;;;;8.55;6.93;;;16.30;99.90;;;;;;5035760;28;20017;-76
2021/06/08 03:40:15;;;;;;;7.75;7.03;;;16.40;99.90;;;;;;5002777;28;20045;-76
2021/06/08 03:42:42;;;;;;;7.00;6.07;;;16.40;99.90;;;;;;5035336;28;20376;-76
2021/06/08 03:45:12;;;;;;;9.27;6.35;;;16.40;99.90;;;;;;5035410;28;20032;-76
2021/06/08 03:47:40;;;;;;;6.75;5.30;;;16.40;99.90;;;;;;5035368;28;20492;-76
2021/06/08 03:50:07;;;;;;;9.25;6.20;;;16.50;99.90;;;;;;5035560;28;20112;-76
2021/06/08 03:52:33;;;;;;;10.23;6.13;;;16.50;99.90;;;;;;5017531;28;20511;-76
2021/06/08 03:54:58;;;;;;;10.63;6.70;;;16.40;99.90;;;;;;5035097;28;20022;-76
2021/06/08 03:57:28;;;;;;;9.82;5.05;;;16.40;99.90;;;;;;5035093;28;20025;-77
2021/06/08 03:59:57;;;;;;;6.50;5.85;;;16.40;99.90;;;;;;5035204;28;20033;-76
2021/06/08 04:02:24;;;;;;;8.27;5.88;;;16.40;99.90;;;;;;5034158;28;20431;-76
2021/06/08 04:04:50;;;;;;;9.85;6.00;;;16.50;99.90;;;;;;5033770;28;20029;-76
2021/06/08 04:07:20;;;;;;;12.32;6.72;;;16.50;99.90;;;;;;5033748;28;20053;-76
2021/06/08 04:09:48;;;;;;;6.57;5.68;;;16.50;99.90;;;;;;5035206;28;20087;-76
2021/06/08 04:12:20;;;;;;;9.77;5.97;;;16.40;99.90;;;;;;5035078;28;20025;-76
2021/06/08 04:14:47;;;;;;;8.10;6.00;;;16.40;99.90;;;;;;5034734;28;20021;-76
2021/06/08 04:17:12;;;;;;;8.15;5.60;;;16.40;99.90;;;;;;5034937;28;20022;-76
2021/06/08 04:19:38;;;;;;;6.45;5.85;;;16.50;99.90;;;;;;5033458;28;20523;-76
2021/06/08 04:22:04;;;;;;;8.70;6.65;;;16.50;99.90;;;;;;5033316;28;20026;-76
2021/06/08 04:24:30;;;;;;;8.13;6.57;;;16.50;99.90;;;;;;5034854;28;20376;-76
2021/06/08 04:26:58;;;;;;;13.48;6.50;;;16.50;99.90;;;;;;5017681;28;20440;-76
2021/06/08 04:29:24;;;;;;;10.20;6.45;;;16.40;99.90;;;;;;5034764;28;20100;-78
2021/06/08 04:31:51;;;;;;;10.02;6.53;;;16.40;99.90;;;;;;5034503;28;20552;-77
2021/06/08 04:34:21;;;;;;;8.13;6.88;;;16.50;99.90;;;;;;5032897;28;20049;-76
2021/06/08 04:36:48;;;;;;;10.45;7.70;;;16.50;99.90;;;;;;5034190;28;20041;-76
2021/06/08 04:39:14;;;;;;;14.40;8.73;;;16.60;99.90;;;;;;5033021;28;20032;-76
2021/06/08 04:41:40;;;;;;;11.98;8.65;;;16.60;99.90;;;;;;5034208;28;20025;-76
2021/06/08 04:44:07;;;;;;;17.88;9.00;;;16.60;99.90;;;;;;5034441;28;20029;-78
2021/06/08 04:46:38;;;;;;;19.15;10.57;;;16.60;99.90;;;;;;5032836;28;20029;-76
2021/06/08 04:49:04;;;;;;;20.48;13.13;;;16.60;99.90;;;;;;5032827;28;20037;-76
2021/06/08 04:51:30;;;;;;;19.67;12.40;;;16.60;99.90;;;;;;5034003;28;20576;-76
2021/06/08 04:53:57;;;;;;;20.90;13.48;;;16.60;99.90;;;;;;5032769;28;20025;-76
2021/06/08 04:56:22;;;;;;;25.67;14.60;;;16.60;99.90;;;;;;5034398;28;20056;-76
2021/06/08 04:58:48;;;;;;;26.35;20.65;;;16.60;99.90;;;;;;5031816;28;20505;-77
2021/06/08 05:01:31;;;;;;;35.63;24.88;;;16.70;99.90;;;;;;5033073;28;20017;-76
2021/06/08 05:04:08;;;;;;;39.28;28.95;;;16.70;99.90;;;;;;5032447;28;20025;-77
2021/06/08 05:06:40;;;;;;;38.88;28.60;;;16.70;99.90;;;;;;5032518;28;20056;-76
2021/06/08 05:09:11;;;;;;;38.63;27.83;;;16.70;99.90;;;;;;5033860;28;20585;-77
2021/06/08 05:11:44;;;;;;;36.78;26.08;;;16.60;99.90;;;;;;5032780;28;20524;-79
2021/06/08 05:14:12;;;;;;;44.38;29.65;;;16.60;99.90;;;;;;5032538;28;20039;-78
2021/06/08 05:16:41;;;;;;;38.35;26.45;;;16.70;99.90;;;;;;5032245;28;20030;-78
2021/06/08 05:19:10;;;;;;;41.13;30.58;;;16.70;99.90;;;;;;5033597;28;20037;-78
2021/06/08 05:21:37;;;;;;;36.50;27.60;;;16.60;99.90;;;;;;5032512;28;20523;-78
2021/06/08 05:24:06;;;;;;;39.85;29.30;;;16.70;99.90;;;;;;5033559;28;20022;-78
2021/06/08 05:26:32;;;;;;;45.85;31.10;;;16.70;99.90;;;;;;5032273;28;20056;-78
2021/06/08 05:28:58;;;;;;;48.08;34.20;;;16.70;99.90;;;;;;5034023;28;20075;-78
2021/06/08 05:31:24;;;;;;;42.30;30.42;;;16.70;99.90;;;;;;5033010;28;20078;-78
2021/06/08 05:33:57;;;;;;;46.53;32.53;;;16.70;99.90;;;;;;5033220;28;20033;-78
2021/06/08 05:36:22;;;;;;;37.28;27.80;;;16.60;99.90;;;;;;5032068;28;20128;-78
2021/06/08 05:38:50;;;;;;;49.53;34.40;;;16.60;99.90;;;;;;5032198;28;20108;-78
2021/06/08 05:41:16;;;;;;;40.55;29.10;;;16.70;99.90;;;;;;5033511;28;20404;-78
2021/06/08 05:43:43;;;;;;;48.92;32.45;;;16.70;99.90;;;;;;5032260;28;20030;-78
2021/06/08 05:46:10;;;;;;;25.77;21.55;;;16.70;99.90;;;;;;5031957;28;20025;-78
2021/06/08 05:48:37;;;;;;;29.45;22.65;;;16.70;99.90;;;;;;5032092;28;20037;-78
2021/06/08 05:51:04;;;;;;;39.80;27.08;;;16.60;99.90;;;;;;5033782;28;20132;-78
2021/06/08 05:53:31;;;;;;;43.35;30.73;;;16.70;99.90;;;;;;5033187;28;20036;-79
2021/06/08 05:55:59;;;;;;;42.03;30.63;;;16.60;99.90;;;;;;5033379;28;20515;-78
2021/06/08 05:58:30;;;;;;;45.25;32.10;;;16.60;99.90;;;;;;5033201;28;20035;-78
2021/06/08 06:00:58;;;;;;;44.40;31.58;;;16.60;99.90;;;;;;5033143;28;20060;-78
2021/06/08 06:03:26;;;;;;;43.13;29.13;;;16.60;99.90;;;;;;5033091;28;20021;-78
2021/06/08 06:05:53;;;;;;;41.17;31.33;;;16.60;99.90;;;;;;5033070;28;20025;-78
2021/06/08 06:08:20;;;;;;;41.53;31.52;;;16.70;99.90;;;;;;5033038;28;20026;-78
2021/06/08 06:10:48;;;;;;;33.53;25.60;;;16.70;99.90;;;;;;5035242;28;20104;-78
2021/06/08 06:13:36;;;;;;;43.08;29.77;;;16.80;99.90;;;;;;5035830;28;20021;-78
2021/06/08 06:16:03;;;;;;;31.02;22.92;;;16.80;99.90;;;;;;5034379;28;20097;-78
2021/06/08 06:18:29;;;;;;;44.40;32.20;;;16.80;99.90;;;;;;5036947;28;20028;-78
2021/06/08 06:20:55;;;;;;;38.75;27.85;;;16.80;99.90;;;;;;5035890;28;20381;-78
2021/06/08 06:23:23;;;;;;;36.92;27.15;;;16.80;99.90;;;;;;5037086;28;20030;-78
2021/06/08 06:25:51;;;;;;;50.88;33.08;;;16.90;99.90;;;;;;5036764;28;20025;-78
2021/06/08 06:28:18;;;;;;;40.30;29.60;;;16.90;99.90;;;;;;5035264;28;20060;-78
2021/06/08 06:30:44;;;;;;;33.08;26.65;;;16.80;99.90;;;;;;5036685;28;20476;-78
2021/06/08 06:33:12;;;;;;;45.58;33.97;;;16.80;99.90;;;;;;5036628;28;20033;-78
2021/06/08 06:35:39;;;;;;;46.75;32.67;;;16.80;99.90;;;;;;5035097;28;20263;-78
2021/06/08 06:38:07;;;;;;;49.03;34.50;;;16.90;99.90;;;;;;5036809;28;20026;-78
2021/06/08 06:40:38;;;;;;;41.38;28.70;;;16.90;99.90;;;;;;5035145;28;20022;-78
2021/06/08 06:43:06;;;;;;;45.88;32.28;;;16.90;99.90;;;;;;5037065;28;20025;-78
2021/06/08 06:45:33;;;;;;;50.67;33.97;;;16.80;99.90;;;;;;5018854;28;20029;-78
2021/06/08 06:48:04;;;;;;;52.83;36.30;;;16.90;99.90;;;;;;5036188;28;20500;-78
2021/06/08 06:50:34;;;;;;;49.42;34.60;;;16.80;99.90;;;;;;5037021;28;20101;-79
2021/06/08 06:53:00;;;;;;;36.78;25.00;;;17.00;99.90;;;;;;5036908;28;20052;-79
2021/06/08 06:55:27;;;;;;;50.67;33.38;;;17.00;99.90;;;;;;5036489;28;20036;-79
2021/06/08 06:57:54;;;;;;;50.45;33.50;;;17.00;99.90;;;;;;5034962;28;20121;-79
2021/06/08 07:00:21;;;;;;;44.83;30.92;;;17.00;99.90;;;;;;5034932;28;20037;-79
2021/06/08 07:02:48;;;;;;;43.85;30.90;;;17.00;99.90;;;;;;5036076;28;20025;-79
2021/06/08 07:05:18;;;;;;;45.58;32.35;;;17.00;99.90;;;;;;5036073;28;20417;-79
2021/06/08 07:07:46;;;;;;;46.65;33.15;;;17.10;99.90;;;;;;5036558;28;20091;-79
2021/06/08 07:10:15;;;;;;;42.95;28.98;;;17.10;99.90;;;;;;5035977;28;20049;-79
2021/06/08 07:12:42;;;;;;;35.97;25.27;;;17.20;99.90;;;;;;5034679;28;20108;-79
2021/06/08 07:15:10;;;;;;;32.60;23.48;;;17.30;99.90;;;;;;5035823;28;20033;-79
2021/06/08 07:17:40;;;;;;;40.90;27.77;;;17.30;99.90;;;;;;5034584;28;20036;-79
2021/06/08 07:20:07;;;;;;;43.63;30.90;;;17.20;99.90;;;;;;5034598;28;20037;-79
2021/06/08 07:22:34;;;;;;;30.23;23.48;;;17.20;99.90;;;;;;5034891;28;20032;-79
2021/06/08 07:25:03;;;;;;;41.45;28.65;;;17.30;99.90;;;;;;5034474;28;20048;-79
2021/06/08 07:27:29;;;;;;;36.88;24.83;;;17.20;99.90;;;;;;5035618;28;20022;-79
2021/06/08 07:29:55;;;;;;;29.88;21.90;;;17.30;99.90;;;;;;5035888;28;20101;-79
2021/06/08 07:32:24;;;;;;;30.95;24.63;;;17.20;99.90;;;;;;5035595;28;20022;-79
2021/06/08 07:34:59;;;;;;;32.80;24.70;;;17.30;99.90;;;;;;5033953;28;20049;-79
2021/06/08 07:37:28;;;;;;;33.20;26.30;;;17.30;99.90;;;;;;5034249;28;20025;-79
2021/06/08 07:40:04;;;;;;;36.85;26.30;;;17.30;99.90;;;;;;5035428;28;20026;-79
2021/06/08 07:42:38;;;;;;;41.63;29.92;;;17.30;99.90;;;;;;5034192;28;20030;-79
2021/06/08 07:45:07;;;;;;;35.25;27.05;;;17.20;99.90;;;;;;5035405;28;20523;-79
2021/06/08 07:47:34;;;;;;;41.95;30.25;;;17.20;99.90;;;;;;5034262;28;20087;-79
2021/06/08 07:50:02;;;;;;;36.83;28.48;;;17.30;99.90;;;;;;5033988;28;20018;-79
2021/06/08 07:52:28;;;;;;;35.83;26.88;;;17.20;99.90;;;;;;5033979;28;20397;-79
2021/06/08 07:54:55;;;;;;;41.05;30.25;;;17.30;99.90;;;;;;5033803;28;20075;-79
2021/06/08 07:57:21;;;;;;;40.78;29.92;;;17.30;99.90;;;;;;5035283;28;20026;-79
2021/06/08 07:59:48;;;;;;;36.42;27.30;;;17.20;99.90;;;;;;5033525;28;20033;-79
2021/06/08 08:02:18;;;;;;;37.97;27.85;;;17.20;99.90;;;;;;5035075;28;20017;-79
2021/06/08 08:04:56;;;;;;;35.20;26.30;;;17.30;99.90;;;;;;5033707;28;20048;-79
2021/06/08 08:07:24;;;;;;;42.63;29.30;;;17.30;99.90;;;;;;5033558;28;20025;-79
2021/06/08 08:09:51;;;;;;;40.97;30.15;;;17.30;99.90;;;;;;5034725;28;20025;-79
2021/06/08 08:12:18;;;;;;;43.88;30.45;;;17.30;99.90;;;;;;5033291;28;20026;-79
2021/06/08 08:14:46;;;;;;;41.45;30.55;;;17.30;99.90;;;;;;5033447;28;20017;-79
2021/06/08 08:17:13;;;;;;;37.70;27.10;;;17.30;99.90;;;;;;5034510;28;20021;-79
2021/06/08 08:19:40;;;;;;;44.80;31.52;;;17.30;99.90;;;;;;5033312;28;20029;-80
2021/06/08 08:22:06;;;;;;;51.40;33.78;;;17.30;99.90;;;;;;5034552;28;20095;-79
2021/06/08 08:24:33;;;;;;;38.45;25.70;;;17.30;99.90;;;;;;5033257;28;20361;-79
2021/06/08 08:27:02;;;;;;;40.47;31.30;;;17.30;99.90;;;;;;5033281;28;20040;-79
2021/06/08 08:29:27;;;;;;;46.72;32.17;;;17.30;99.90;;;;;;5034471;28;20033;-79
2021/06/08 08:31:54;;;;;;;39.90;31.00;;;17.50;99.90;;;;;;5034666;28;20025;-79
2021/06/08 08:34:20;;;;;;;45.55;32.72;;;17.60;99.90;;;;;;5032537;28;20106;-79
2021/06/08 08:36:46;;;;;;;40.60;30.05;;;17.70;99.90;;;;;;5034452;28;20042;-79
2021/06/08 08:39:12;;;;;;;38.63;27.48;;;17.70;99.90;;;;;;5033093;28;20022;-80
2021/06/08 08:41:40;;;;;;;35.70;27.85;;;17.70;99.90;;;;;;5032967;28;20099;-79
2021/06/08 08:44:07;;;;;;;37.30;29.38;;;17.70;99.90;;;;;;5032946;28;20028;-79
2021/06/08 08:46:36;;;;;;;37.60;28.13;;;17.60;99.90;;;;;;5034056;28;20029;-78
2021/06/08 08:49:02;;;;;;;45.88;34.55;;;17.70;99.90;;;;;;5032606;28;20079;-78
2021/06/08 08:51:30;;;;;;;36.78;28.88;;;17.70;99.90;;;;;;5032621;28;20068;-79
2021/06/08 08:53:58;;;;;;;39.75;29.95;;;17.60;99.90;;;;;;5032936;28;20117;-78
2021/06/08 08:56:38;;;;;;;45.63;33.70;;;17.60;99.90;;;;;;5033908;28;20060;-78
2021/06/08 08:59:10;;;;;;;48.05;33.38;;;17.70;99.90;;;;;;5033852;28;20052;-78
2021/06/08 09:01:36;;;;;;;37.42;29.65;;;18.00;99.90;;;;;;5033905;28;20028;-78
2021/06/08 09:04:04;;;;;;;30.17;23.73;;;18.10;99.90;;;;;;5032625;28;20468;-78
2021/06/08 09:06:31;;;;;;;38.08;29.10;;;18.10;99.90;;;;;;5032514;28;20079;-79
2021/06/08 09:08:57;;;;;;;37.35;29.35;;;18.20;99.90;;;;;;5033923;28;20411;-79
2021/06/08 09:11:23;;;;;;;34.60;27.38;;;18.20;99.90;;;;;;5032540;28;20026;-78
2021/06/08 09:13:49;;;;;;;47.05;35.22;;;18.10;99.90;;;;;;5033802;28;20075;-79
2021/06/08 09:16:15;;;;;;;47.80;34.08;;;18.20;99.90;;;;;;5034167;28;20017;-78
2021/06/08 09:18:42;;;;;;;38.20;29.08;;;18.20;99.90;;;;;;5033625;28;20021;-78
2021/06/08 09:21:18;;;;;;;38.50;30.08;;;18.30;99.90;;;;;;5033956;28;20029;-78
2021/06/08 09:23:44;;;;;;;38.95;30.85;;;18.30;99.90;;;;;;5032361;28;20026;-78
2021/06/08 09:26:10;;;;;;;39.65;30.67;;;18.40;99.90;;;;;;5033598;28;20362;-78
2021/06/08 09:28:38;;;;;;;40.78;31.73;;;18.70;99.90;;;;;;5033536;28;20028;-79
2021/06/08 09:31:25;;;;;;;41.88;31.92;;;18.90;99.90;;;;;;5033740;28;20049;-79
2021/06/08 09:33:53;;;;;;;48.78;31.88;;;18.70;99.90;;;;;;5032170;28;20049;-78
2021/06/08 09:36:24;;;;;;;43.55;32.28;;;18.80;99.90;;;;;;5031816;28;20068;-78
2021/06/08 09:38:58;;;;;;;46.45;32.00;;;18.80;99.90;;;;;;5033694;28;20152;-79
2021/06/08 09:41:44;;;;;;;37.45;30.02;;;19.00;99.90;;;;;;5033440;28;20075;-78
2021/06/08 09:44:18;;;;;;;27.15;21.65;;;19.00;99.90;;;;;;5033215;28;20026;-78
2021/06/08 09:46:59;;;;;;;33.58;25.42;;;19.20;99.90;;;;;;5031861;28;20025;-78
2021/06/08 09:49:30;;;;;;;38.60;27.60;;;19.40;99.90;;;;;;5031982;28;20033;-78
2021/06/08 09:52:00;;;;;;;34.47;27.33;;;19.70;99.90;;;;;;5033175;28;20022;-78
2021/06/08 09:54:30;;;;;;;36.95;28.38;;;19.90;99.90;;;;;;5031907;28;20033;-78
2021/06/08 09:57:16;;;;;;;37.60;27.17;;;20.10;99.90;;;;;;5033405;28;20067;-78
2021/06/08 10:00:06;;;;;;;34.20;26.92;;;20.40;99.90;;;;;;5031887;28;20018;-78
2021/06/08 10:02:38;;;;;;;31.35;24.05;;;20.60;99.90;;;;;;5033499;28;20022;-78
2021/06/08 10:05:27;;;;;;;31.90;25.25;;;20.60;99.90;;;;;;5031854;28;20033;-78
2021/06/08 10:08:13;;;;;;;33.53;26.42;;;20.50;99.90;;;;;;5031828;28;20021;-78
2021/06/08 10:10:44;;;;;;;36.22;28.10;;;20.50;99.90;;;;;;5032945;28;20132;-78
2021/06/08 10:13:19;;;;;;;30.88;24.48;;;20.30;99.90;;;;;;5031764;28;20416;-78
2021/06/08 10:16:04;;;;;;;31.77;26.08;;;20.20;99.90;;;;;;5033276;28;20048;-79
2021/06/08 10:18:46;;;;;;;42.35;28.73;;;20.20;99.90;;;;;;5033071;28;20220;-78
2021/06/08 10:21:12;;;;;;;30.15;24.83;;;20.10;99.90;;;;;;5031709;28;20029;-78
2021/06/08 10:23:38;;;;;;;37.00;27.08;;;20.30;99.90;;;;;;5032984;28;20026;-79
2021/06/08 10:26:07;;;;;;;28.80;23.95;;;20.70;99.90;;;;;;5031721;28;20389;-79
2021/06/08 10:28:33;;;;;;;27.77;20.60;;;20.90;99.90;;;;;;5032952;28;20100;-78
2021/06/08 10:31:00;;;;;;;30.17;22.67;;;20.70;99.90;;;;;;5032895;28;20025;-78
2021/06/08 10:33:27;;;;;;;33.72;24.73;;;20.70;99.90;;;;;;5033150;28;20025;-79
2021/06/08 10:35:53;;;;;;;27.10;23.77;;;20.70;99.90;;;;;;5032542;28;20057;-79
2021/06/08 10:38:21;;;;;;;41.45;26.25;;;20.70;99.90;;;;;;5032792;28;20021;-79
2021/06/08 10:40:55;;;;;;;24.77;21.17;;;20.80;99.90;;;;;;5033078;28;20026;-78
2021/06/08 10:43:22;;;;;;;;;;;21.00;99.90;;;;;;5031916;28;20040;-79
2021/06/08 10:45:55;;;;;;;25.05;21.38;;;21.30;99.90;;;;;;5033025;28;19916;-79
2021/06/08 10:48:31;;;;;;;28.50;23.73;;;21.70;99.90;;;;;;5032766;28;20527;-78
2021/06/08 10:51:13;;;;;;;31.00;23.40;;;22.00;99.90;;;;;;5031433;28;20021;-78
2021/06/08 10:53:41;;;;;;;25.48;21.63;;;21.90;99.90;;;;;;5031370;28;20489;-78
2021/06/08 10:56:25;;;;;;;29.67;24.65;;;21.70;99.90;;;;;;5032610;28;20370;-79
2021/06/08 10:58:59;;;;;;;28.40;23.40;;;21.10;99.90;;;;;;5034877;28;20026;-78
2021/06/08 11:01:31;;;;;;;27.63;23.85;;;21.00;99.90;;;;;;5036276;28;20100;-78
2021/06/08 11:04:01;;;;;;;31.25;24.13;;;21.10;99.90;;;;;;5034933;28;20485;-79
2021/06/08 11:06:51;;;;;;;27.35;23.13;;;21.10;99.90;;;;;;5036504;28;20113;-78
2021/06/08 11:09:22;;;;;;;27.92;23.85;;;21.20;99.90;;;;;;5036344;28;20029;-78
2021/06/08 11:12:02;;;;;;;25.92;22.13;;;21.20;99.90;;;;;;5034813;28;20573;-78
2021/06/08 11:14:55;;;;;;;26.48;23.58;;;21.30;99.90;;;;;;5034808;28;20121;-78
2021/06/08 11:17:22;;;;;;;25.98;21.25;;;21.60;99.90;;;;;;5035947;28;20064;-78
2021/06/08 11:19:59;;;;;;;26.02;21.10;;;22.70;99.90;;;;;;5034633;28;20392;-78
2021/06/08 11:22:34;;;;;;;25.40;21.73;;;23.00;99.90;;;;;;5034634;28;20059;-78
2021/06/08 11:25:04;;;;;;;25.40;20.02;;;22.90;99.90;;;;;;5035755;28;20075;-79
2021/06/08 11:27:55;;;;;;;28.08;22.35;;;22.60;99.90;;;;;;5034457;28;20060;-79
2021/06/08 11:30:30;;;;;;;26.70;20.38;;;22.20;99.90;;;;;;5034451;28;20017;-78
2021/06/08 11:32:56;;;;;;;31.00;23.73;;;22.20;99.90;;;;;;5034710;28;20022;-78
2021/06/08 11:35:29;;;;;;;23.42;20.60;;;22.00;99.90;;;;;;5033868;28;20052;-78
2021/06/08 11:38:00;;;;;;;21.15;18.92;;;21.90;99.90;;;;;;5035854;28;20080;-78
2021/06/08 11:40:35;;;;;;;27.83;22.88;;;21.80;99.90;;;;;;5034196;28;20026;-77
2021/06/08 11:43:11;;;;;;;27.90;22.50;;;21.50;99.90;;;;;;5034144;28;20026;-78
2021/06/08 11:45:45;;;;;;;28.48;22.63;;;21.50;99.90;;;;;;5034006;28;20401;-78
2021/06/08 11:48:29;;;;;;;;;;;21.60;99.90;;;;;;5034403;28;20041;-78
2021/06/08 11:50:55;;;;;;;30.08;22.85;;;21.80;99.90;;;;;;5033988;28;19906;-78
2021/06/08 11:53:21;;;;;;;31.50;24.42;;;21.40;99.90;;;;;;5034032;28;20526;-78
2021/06/08 11:56:10;;;;;;;25.55;22.13;;;21.20;99.90;;;;;;5035335;28;20040;-78
2021/06/08 11:58:38;;;;;;;29.30;21.02;;;20.90;99.90;;;;;;5033775;28;20526;-78
2021/06/08 12:01:06;;;;;;;26.75;21.88;;;20.80;99.90;;;;;;5033633;28;20017;-78
2021/06/08 12:03:37;;;;;;;22.73;19.98;;;20.70;99.90;;;;;;5033805;28;20117;-78
2021/06/08 12:06:05;;;;;;;26.25;20.48;;;20.80;99.90;;;;;;5035002;28;20053;-78
2021/06/08 12:08:35;;;;;;;21.65;19.15;;;20.80;99.90;;;;;;5033283;28;20057;-78
2021/06/08 12:11:13;;;;;;;21.63;19.33;;;21.10;99.90;;;;;;5035244;28;20533;-78
2021/06/08 12:13:42;;;;;;;23.52;19.92;;;21.30;99.90;;;;;;5033551;28;20053;-78
2021/06/08 12:16:11;;;;;;;28.75;19.88;;;21.60;99.90;;;;;;5033462;28;20108;-78
2021/06/08 12:18:37;;;;;;;24.52;19.92;;;22.10;99.90;;;;;;5035350;28;20094;-78
2021/06/08 12:21:12;;;;;;;22.40;19.15;;;22.60;99.90;;;;;;5033421;28;20036;-78
2021/06/08 12:23:39;;;;;;;21.83;16.55;;;23.50;99.90;;;;;;5033458;28;20079;-78
2021/06/08 12:26:13;;;;;;;19.17;17.05;;;24.30;99.90;;;;;;5033335;28;20035;-78
2021/06/08 12:28:41;;;;;;;20.63;17.90;;;24.10;99.90;;;;;;5033373;28;20038;-78
2021/06/08 12:31:18;;;;;;;20.70;17.00;;;23.70;99.90;;;;;;5033262;28;20474;-78
2021/06/08 12:33:45;;;;;;;18.40;16.40;;;23.40;99.90;;;;;;5034442;28;20034;-78
2021/06/08 12:36:11;;;;;;;20.60;16.35;;;23.20;99.90;;;;;;5034265;28;20049;-78
2021/06/08 12:38:55;;;;;;;18.75;15.60;;;23.60;99.90;;;;;;5033170;28;20029;-78
2021/06/08 12:41:26;;;;;;;16.98;15.15;;;24.60;99.90;;;;;;5034342;28;20037;-78
2021/06/08 12:43:57;;;;;;;16.85;14.68;;;25.50;99.90;;;;;;5032937;28;20408;-78
2021/06/08 12:46:31;;;;;;;15.95;14.35;;;25.70;99.90;;;;;;5032954;28;20103;-79